createdAt,value
2023-02-26T00:00:39.945Z,1006.54
2023-02-26T00:01:39.957Z,1006.53
2023-02-26T00:02:39.966Z,1006.60
2023-02-26T00:03:39.960Z,1006.59
2023-02-26T00:04:39.975Z,1006.58
2023-02-26T00:05:39.978Z,1006.59
2023-02-26T00:06:40.001Z,1006.61
2023-02-26T00:07:39.987Z,1006.58
2023-02-26T00:08:39.994Z,1006.65
2023-02-26T00:09:40.000Z,1006.66
2023-02-26T00:10:40.003Z,1006.74
2023-02-26T00:11:40.018Z,1006.70
2023-02-26T00:12:40.017Z,1006.68
2023-02-26T00:13:40.024Z,1006.69
2023-02-26T00:14:40.036Z,1006.73
2023-02-26T00:15:40.062Z,1006.76
2023-02-26T00:16:40.112Z,1006.77
2023-02-26T00:17:40.050Z,1006.79
2023-02-26T00:18:40.060Z,1006.80
2023-02-26T00:19:40.072Z,1006.84
2023-02-26T00:20:40.073Z,1006.86
2023-02-26T00:21:40.075Z,1006.86
2023-02-26T00:22:40.085Z,1006.89
2023-02-26T00:23:40.085Z,1006.86
2023-02-26T00:24:40.094Z,1006.91
2023-02-26T00:25:40.099Z,1006.93
2023-02-26T00:26:40.106Z,1006.92
2023-02-26T00:27:40.120Z,1006.94
2023-02-26T00:28:40.121Z,1006.95
2023-02-26T00:29:40.131Z,1007.00
2023-02-26T00:30:40.164Z,1007.00
2023-02-26T00:31:40.264Z,1007.00
2023-02-26T00:32:40.236Z,1007.03
2023-02-26T00:33:40.157Z,1007.03
2023-02-26T00:34:40.184Z,1007.06
2023-02-26T00:35:40.168Z,1007.08
2023-02-26T00:36:40.184Z,1007.11
2023-02-26T00:37:40.179Z,1007.12
2023-02-26T00:38:40.187Z,1007.11
2023-02-26T00:39:40.196Z,1007.13
2023-02-26T00:40:40.201Z,1007.11
2023-02-26T00:41:40.240Z,1007.11
2023-02-26T00:42:40.216Z,1007.16
2023-02-26T00:43:40.216Z,1007.17
2023-02-26T00:44:40.230Z,1007.13
2023-02-26T00:45:40.230Z,1007.17
2023-02-26T00:46:40.247Z,1007.16
2023-02-26T00:47:40.251Z,1007.19
2023-02-26T00:48:40.254Z,1007.18
2023-02-26T00:49:40.259Z,1007.16
2023-02-26T00:50:40.263Z,1007.17
2023-02-26T00:51:40.271Z,1007.17
2023-02-26T00:52:40.279Z,1007.21
2023-02-26T00:53:40.284Z,1007.22
2023-02-26T00:54:40.299Z,1007.21
2023-02-26T00:55:40.306Z,1007.22
2023-02-26T00:56:40.309Z,1007.23
2023-02-26T00:57:40.315Z,1007.29
2023-02-26T00:58:40.320Z,1007.34
2023-02-26T00:59:40.322Z,1007.28
2023-02-26T01:00:40.329Z,1007.37
2023-02-26T01:01:40.392Z,1007.29
2023-02-26T01:02:40.345Z,1007.30
2023-02-26T01:03:40.375Z,1007.33
2023-02-26T01:04:40.354Z,1007.35
2023-02-26T01:05:40.369Z,1007.35
2023-02-26T01:06:40.365Z,1007.39
2023-02-26T01:07:40.373Z,1007.33
2023-02-26T01:08:40.377Z,1007.36
2023-02-26T01:09:40.387Z,1007.40
2023-02-26T01:10:40.392Z,1007.42
2023-02-26T01:11:40.397Z,1007.39
2023-02-26T01:12:40.403Z,1007.42
2023-02-26T01:13:40.408Z,1007.46
2023-02-26T01:14:40.419Z,1007.48
2023-02-26T01:15:40.466Z,1007.46
2023-02-26T01:16:40.429Z,1007.50
2023-02-26T01:17:40.443Z,1007.48
2023-02-26T01:18:40.441Z,1007.51
2023-02-26T01:19:40.447Z,1007.47
2023-02-26T01:20:40.455Z,1007.49
2023-02-26T01:21:40.458Z,1007.52
2023-02-26T01:22:40.466Z,1007.50
2023-02-26T01:23:40.474Z,1007.54
2023-02-26T01:24:40.485Z,1007.54
2023-02-26T01:25:40.490Z,1007.59
2023-02-26T01:26:40.501Z,1007.54
2023-02-26T01:27:40.500Z,1007.59
2023-02-26T01:28:40.516Z,1007.56
2023-02-26T01:29:40.511Z,1007.58
2023-02-26T01:30:40.537Z,1007.62
2023-02-26T01:31:40.620Z,1007.59
2023-02-26T01:32:40.540Z,1007.59
2023-02-26T01:33:40.536Z,1007.63
2023-02-26T01:34:40.543Z,1007.65
2023-02-26T01:35:40.550Z,1007.63
2023-02-26T01:36:40.563Z,1007.64
2023-02-26T01:37:40.566Z,1007.68
2023-02-26T01:38:40.571Z,1007.65
2023-02-26T01:39:40.586Z,1007.60
2023-02-26T01:40:40.589Z,1007.64
2023-02-26T01:41:40.597Z,1007.63
2023-02-26T01:42:40.599Z,1007.66
2023-02-26T01:43:40.605Z,1007.64
2023-02-26T01:44:40.613Z,1007.70
2023-02-26T01:45:40.620Z,1007.69
2023-02-26T01:46:40.679Z,1007.69
2023-02-26T01:47:40.634Z,1007.73
2023-02-26T01:48:40.642Z,1007.72
2023-02-26T01:49:40.651Z,1007.80
2023-02-26T01:50:40.654Z,1007.73
2023-02-26T01:51:40.660Z,1007.74
2023-02-26T01:52:40.665Z,1007.73
2023-02-26T01:53:40.742Z,1007.75
2023-02-26T01:54:40.691Z,1007.72
2023-02-26T01:55:40.696Z,1007.79
2023-02-26T01:56:40.694Z,1007.77
2023-02-26T01:57:40.708Z,1007.80
2023-02-26T01:58:40.711Z,1007.78
2023-02-26T01:59:40.715Z,1007.80
2023-02-26T02:00:40.720Z,1007.77
2023-02-26T02:01:40.743Z,1007.80
2023-02-26T02:02:40.858Z,1007.86
2023-02-26T02:03:40.826Z,1007.86
2023-02-26T02:04:40.752Z,1007.80
2023-02-26T02:05:40.762Z,1007.83
2023-02-26T02:06:40.764Z,1007.86
2023-02-26T02:07:40.768Z,1007.85
2023-02-26T02:08:40.780Z,1007.88
2023-02-26T02:09:40.798Z,1007.90
2023-02-26T02:10:40.788Z,1007.97
2023-02-26T02:11:40.790Z,1007.94
2023-02-26T02:12:40.802Z,1007.96
2023-02-26T02:13:40.803Z,1007.98
2023-02-26T02:14:40.808Z,1007.97
2023-02-26T02:15:40.814Z,1007.99
2023-02-26T02:16:40.872Z,1008.07
2023-02-26T02:17:40.827Z,1008.08
2023-02-26T02:18:40.836Z,1008.05
2023-02-26T02:19:40.842Z,1008.12
2023-02-26T02:20:40.852Z,1008.07
2023-02-26T02:21:40.854Z,1008.13
2023-02-26T02:22:40.861Z,1008.14
2023-02-26T02:23:40.864Z,1008.19
2023-02-26T02:24:40.872Z,1008.19
2023-02-26T02:25:40.879Z,1008.21
2023-02-26T02:26:40.897Z,1008.23
2023-02-26T02:27:40.892Z,1008.22
2023-02-26T02:28:40.897Z,1008.24
2023-02-26T02:29:40.903Z,1008.26
2023-02-26T02:30:40.924Z,1008.31
2023-02-26T02:31:41.108Z,1008.33
2023-02-26T02:32:40.929Z,1008.32
2023-02-26T02:33:40.929Z,1008.34
2023-02-26T02:34:40.953Z,1008.35
2023-02-26T02:35:40.945Z,1008.40
2023-02-26T02:36:40.947Z,1008.41
2023-02-26T02:37:40.958Z,1008.37
2023-02-26T02:38:40.970Z,1008.37
2023-02-26T02:39:40.968Z,1008.37
2023-02-26T02:40:40.977Z,1008.44
2023-02-26T02:41:40.983Z,1008.43
2023-02-26T02:42:40.990Z,1008.44
2023-02-26T02:43:40.998Z,1008.44
2023-02-26T02:44:41.005Z,1008.48
2023-02-26T02:45:41.027Z,1008.47
2023-02-26T02:46:41.025Z,1008.49
2023-02-26T02:47:41.028Z,1008.49
2023-02-26T02:48:41.033Z,1008.52
2023-02-26T02:49:41.041Z,1008.57
2023-02-26T02:50:41.045Z,1008.56
2023-02-26T02:51:41.050Z,1008.55
2023-02-26T02:52:41.065Z,1008.50
2023-02-26T02:53:41.063Z,1008.48
2023-02-26T02:54:41.070Z,1008.55
2023-02-26T02:55:41.079Z,1008.52
2023-02-26T02:56:41.083Z,1008.53
2023-02-26T02:57:41.089Z,1008.55
2023-02-26T02:58:41.108Z,1008.52
2023-02-26T02:59:41.103Z,1008.54
2023-02-26T03:00:41.151Z,1008.58
2023-02-26T03:01:41.118Z,1008.59
2023-02-26T03:02:41.141Z,1008.59
2023-02-26T03:03:41.129Z,1008.61
2023-02-26T03:04:41.144Z,1008.60
2023-02-26T03:05:41.144Z,1008.58
2023-02-26T03:06:41.149Z,1008.58
2023-02-26T03:07:41.157Z,1008.59
2023-02-26T03:08:41.169Z,1008.64
2023-02-26T03:09:41.171Z,1008.67
2023-02-26T03:10:41.175Z,1008.65
2023-02-26T03:11:41.185Z,1008.66
2023-02-26T03:12:41.190Z,1008.65
2023-02-26T03:13:41.196Z,1008.70
2023-02-26T03:14:41.203Z,1008.72
2023-02-26T03:15:41.211Z,1008.71
2023-02-26T03:16:41.308Z,1008.73
2023-02-26T03:17:41.223Z,1008.74
2023-02-26T03:18:41.237Z,1008.74
2023-02-26T03:19:41.236Z,1008.79
2023-02-26T03:20:41.248Z,1008.83
2023-02-26T03:21:41.251Z,1008.83
2023-02-26T03:22:41.258Z,1008.87
2023-02-26T03:23:41.268Z,1008.88
2023-02-26T03:24:41.272Z,1008.93
2023-02-26T03:25:41.280Z,1008.89
2023-02-26T03:26:41.291Z,1008.90
2023-02-26T03:27:41.296Z,1008.91
2023-02-26T03:28:41.305Z,1008.92
2023-02-26T03:29:41.309Z,1008.91
2023-02-26T03:30:41.321Z,1008.93
2023-02-26T03:31:41.393Z,1008.93
2023-02-26T03:32:41.356Z,1008.95
2023-02-26T03:33:41.335Z,1009.00
2023-02-26T03:34:41.351Z,1009.00
2023-02-26T03:35:41.352Z,1009.04
2023-02-26T03:36:41.354Z,1009.04
2023-02-26T03:37:41.366Z,1009.07
2023-02-26T03:38:41.376Z,1009.05
2023-02-26T03:39:41.378Z,1009.11
2023-02-26T03:40:41.410Z,1009.04
2023-02-26T03:41:41.389Z,1009.06
2023-02-26T03:42:41.400Z,1009.17
2023-02-26T03:43:41.404Z,1009.15
2023-02-26T03:44:41.417Z,1009.19
2023-02-26T03:45:41.480Z,1009.21
2023-02-26T03:46:41.437Z,1009.24
2023-02-26T03:47:41.448Z,1009.26
2023-02-26T03:48:41.452Z,1009.24
2023-02-26T03:49:41.444Z,1009.28
2023-02-26T03:50:41.454Z,1009.32
2023-02-26T03:51:41.454Z,1009.36
2023-02-26T03:52:41.461Z,1009.36
2023-02-26T03:53:41.468Z,1009.33
2023-02-26T03:54:41.474Z,1009.39
2023-02-26T03:55:41.496Z,1009.38
2023-02-26T03:56:41.488Z,1009.48
2023-02-26T03:57:41.499Z,1009.47
2023-02-26T03:58:41.504Z,1009.46
2023-02-26T03:59:41.506Z,1009.48
2023-02-26T04:00:43.110Z,1009.56
2023-02-26T04:01:41.522Z,1009.46
2023-02-26T04:02:41.540Z,1009.55
2023-02-26T04:03:41.535Z,1009.56
2023-02-26T04:04:41.622Z,1009.59
2023-02-26T04:05:41.548Z,1009.66
2023-02-26T04:06:41.560Z,1009.62
2023-02-26T04:07:41.558Z,1009.58
2023-02-26T04:08:41.566Z,1009.64
2023-02-26T04:09:41.578Z,1009.62
2023-02-26T04:10:41.582Z,1009.62
2023-02-26T04:11:41.593Z,1009.61
2023-02-26T04:12:41.591Z,1009.71
2023-02-26T04:13:41.599Z,1009.66
2023-02-26T04:14:41.606Z,1009.68
2023-02-26T04:15:41.614Z,1009.66
2023-02-26T04:16:41.655Z,1009.68
2023-02-26T04:17:41.626Z,1009.75
2023-02-26T04:18:41.632Z,1009.72
2023-02-26T04:19:41.644Z,1009.70
2023-02-26T04:20:41.655Z,1009.72
2023-02-26T04:21:41.652Z,1009.74
2023-02-26T04:22:41.657Z,1009.79
2023-02-26T04:23:41.671Z,1009.81
2023-02-26T04:24:41.676Z,1009.77
2023-02-26T04:25:41.680Z,1009.86
2023-02-26T04:26:41.683Z,1009.85
2023-02-26T04:27:41.691Z,1009.90
2023-02-26T04:28:41.717Z,1009.91
2023-02-26T04:29:41.708Z,1009.93
2023-02-26T04:30:41.731Z,1009.86
2023-02-26T04:31:41.818Z,1009.94
2023-02-26T04:32:41.738Z,1009.92
2023-02-26T04:33:41.729Z,1009.96
2023-02-26T04:34:41.739Z,1009.97
2023-02-26T04:35:41.748Z,1009.92
2023-02-26T04:36:41.746Z,1009.91
2023-02-26T04:37:41.752Z,1009.97
2023-02-26T04:38:41.761Z,1009.94
2023-02-26T04:39:41.776Z,1009.99
2023-02-26T04:40:41.790Z,1009.96
2023-02-26T04:41:41.788Z,1009.99
2023-02-26T04:42:41.791Z,1010.04
2023-02-26T04:43:41.793Z,1010.09
2023-02-26T04:44:41.794Z,1010.07
2023-02-26T04:45:41.802Z,1010.07
2023-02-26T04:46:41.860Z,1010.13
2023-02-26T04:47:41.814Z,1010.17
2023-02-26T04:48:41.822Z,1010.17
2023-02-26T04:49:41.826Z,1010.18
2023-02-26T04:50:41.836Z,1010.22
2023-02-26T04:51:41.845Z,1010.19
2023-02-26T04:52:41.847Z,1010.20
2023-02-26T04:53:41.861Z,1010.18
2023-02-26T04:54:41.862Z,1010.22
2023-02-26T04:55:41.871Z,1010.23
2023-02-26T04:56:41.874Z,1010.25
2023-02-26T04:57:41.880Z,1010.26
2023-02-26T04:58:41.891Z,1010.19
2023-02-26T04:59:41.896Z,1010.26
2023-02-26T05:00:41.901Z,1010.23
2023-02-26T05:01:41.968Z,1010.26
2023-02-26T05:02:41.914Z,1010.33
2023-02-26T05:03:41.921Z,1010.33
2023-02-26T05:04:41.983Z,1010.39
2023-02-26T05:05:41.935Z,1010.39
2023-02-26T05:06:41.950Z,1010.36
2023-02-26T05:07:41.948Z,1010.36
2023-02-26T05:08:41.962Z,1010.35
2023-02-26T05:09:41.962Z,1010.43
2023-02-26T05:10:41.968Z,1010.38
2023-02-26T05:11:41.982Z,1010.38
2023-02-26T05:12:41.985Z,1010.41
2023-02-26T05:13:41.990Z,1010.45
2023-02-26T05:14:41.995Z,1010.47
2023-02-26T05:15:42.085Z,1010.49
2023-02-26T05:16:42.020Z,1010.50
2023-02-26T05:17:42.014Z,1010.52
2023-02-26T05:18:42.021Z,1010.58
2023-02-26T05:19:42.030Z,1010.60
2023-02-26T05:20:42.035Z,1010.61
2023-02-26T05:21:42.042Z,1010.57
2023-02-26T05:22:42.056Z,1010.63
2023-02-26T05:23:42.057Z,1010.64
2023-02-26T05:24:42.060Z,1010.65
2023-02-26T05:25:42.069Z,1010.66
2023-02-26T05:26:42.081Z,1010.68
2023-02-26T05:27:42.081Z,1010.72
2023-02-26T05:28:42.091Z,1010.71
2023-02-26T05:29:42.102Z,1010.73
2023-02-26T05:30:42.141Z,1010.69
2023-02-26T05:31:42.236Z,1010.66
2023-02-26T05:32:42.118Z,1010.74
2023-02-26T05:33:42.120Z,1010.75
2023-02-26T05:34:42.132Z,1010.76
2023-02-26T05:35:42.141Z,1010.74
2023-02-26T05:36:42.139Z,1010.76
2023-02-26T05:37:42.149Z,1010.78
2023-02-26T05:38:42.153Z,1010.76
2023-02-26T05:39:42.177Z,1010.86
2023-02-26T05:40:42.168Z,1010.82
2023-02-26T05:41:42.173Z,1010.86
2023-02-26T05:42:42.184Z,1010.84
2023-02-26T05:43:42.185Z,1010.89
2023-02-26T05:44:42.193Z,1010.95
2023-02-26T05:45:42.199Z,1010.92
2023-02-26T05:46:42.216Z,1010.95
2023-02-26T05:47:42.214Z,1010.98
2023-02-26T05:48:44.105Z,1010.95
2023-02-26T05:49:42.233Z,1011.00
2023-02-26T05:50:42.234Z,1010.95
2023-02-26T05:51:42.239Z,1010.99
2023-02-26T05:52:42.246Z,1010.98
2023-02-26T05:53:42.253Z,1011.05
2023-02-26T05:54:42.257Z,1011.05
2023-02-26T05:55:42.266Z,1011.07
2023-02-26T05:56:42.276Z,1011.03
2023-02-26T05:57:42.278Z,1011.09
2023-02-26T05:58:42.282Z,1011.10
2023-02-26T05:59:42.292Z,1011.18
2023-02-26T06:00:42.294Z,1011.19
2023-02-26T06:01:42.353Z,1011.19
2023-02-26T06:02:42.373Z,1011.16
2023-02-26T06:03:42.317Z,1011.19
2023-02-26T06:04:42.320Z,1011.23
2023-02-26T06:05:42.326Z,1011.22
2023-02-26T06:06:42.341Z,1011.26
2023-02-26T06:07:42.345Z,1011.30
2023-02-26T06:08:42.348Z,1011.28
2023-02-26T06:09:42.353Z,1011.31
2023-02-26T06:10:42.362Z,1011.32
2023-02-26T06:11:42.367Z,1011.33
2023-02-26T06:12:42.371Z,1011.28
2023-02-26T06:13:42.385Z,1011.38
2023-02-26T06:14:42.385Z,1011.31
2023-02-26T06:15:42.405Z,1011.39
2023-02-26T06:16:42.443Z,1011.42
2023-02-26T06:17:42.411Z,1011.43
2023-02-26T06:18:42.424Z,1011.44
2023-02-26T06:19:42.419Z,1011.48
2023-02-26T06:20:42.431Z,1011.47
2023-02-26T06:21:42.432Z,1011.47
2023-02-26T06:22:42.438Z,1011.50
2023-02-26T06:23:42.449Z,1011.54
2023-02-26T06:24:42.502Z,1011.55
2023-02-26T06:25:42.461Z,1011.57
2023-02-26T06:26:42.465Z,1011.63
2023-02-26T06:27:42.486Z,1011.62
2023-02-26T06:28:42.490Z,1011.60
2023-02-26T06:29:42.486Z,1011.65
2023-02-26T06:30:42.517Z,1011.58
2023-02-26T06:31:42.591Z,1011.63
2023-02-26T06:32:42.612Z,1011.65
2023-02-26T06:33:42.516Z,1011.63
2023-02-26T06:34:42.524Z,1011.72
2023-02-26T06:35:42.533Z,1011.72
2023-02-26T06:36:42.543Z,1011.76
2023-02-26T06:37:42.554Z,1011.76
2023-02-26T06:38:42.552Z,1011.80
2023-02-26T06:39:42.558Z,1011.78
2023-02-26T06:40:42.567Z,1011.81
2023-02-26T06:41:42.577Z,1011.84
2023-02-26T06:42:42.579Z,1011.83
2023-02-26T06:43:42.589Z,1011.87
2023-02-26T06:44:42.595Z,1011.81
2023-02-26T06:45:42.623Z,1011.88
2023-02-26T06:46:42.611Z,1011.88
2023-02-26T06:47:42.648Z,1011.96
2023-02-26T06:48:42.627Z,1011.96
2023-02-26T06:49:42.643Z,1012.00
2023-02-26T06:50:42.636Z,1012.02
2023-02-26T06:51:42.644Z,1012.02
2023-02-26T06:52:42.651Z,1012.07
2023-02-26T06:53:42.658Z,1012.07
2023-02-26T06:54:42.677Z,1012.08
2023-02-26T06:55:42.670Z,1012.12
2023-02-26T06:56:42.678Z,1012.13
2023-02-26T06:57:42.687Z,1012.11
2023-02-26T06:58:42.697Z,1012.14
2023-02-26T06:59:42.720Z,1012.17
2023-02-26T07:00:42.751Z,1012.13
2023-02-26T07:01:42.715Z,1012.20
2023-02-26T07:02:42.772Z,1012.18
2023-02-26T07:03:42.725Z,1012.16
2023-02-26T07:04:42.739Z,1012.18
2023-02-26T07:05:42.749Z,1012.16
2023-02-26T07:06:42.967Z,1012.27
2023-02-26T07:07:42.754Z,1012.32
2023-02-26T07:08:42.774Z,1012.34
2023-02-26T07:09:44.406Z,1012.34
2023-02-26T07:10:42.784Z,1012.31
2023-02-26T07:11:42.787Z,1012.40
2023-02-26T07:12:42.794Z,1012.38
2023-02-26T07:13:42.797Z,1012.43
2023-02-26T07:14:42.804Z,1012.37
2023-02-26T07:15:44.826Z,1012.41
2023-02-26T07:16:42.856Z,1012.44
2023-02-26T07:17:42.826Z,1012.44
2023-02-26T07:18:42.833Z,1012.44
2023-02-26T07:19:42.840Z,1012.45
2023-02-26T07:20:42.851Z,1012.52
2023-02-26T07:21:42.868Z,1012.47
2023-02-26T07:22:42.864Z,1012.58
2023-02-26T07:23:42.871Z,1012.63
2023-02-26T07:24:42.877Z,1012.64
2023-02-26T07:25:42.891Z,1012.63
2023-02-26T07:26:42.908Z,1012.62
2023-02-26T07:27:43.866Z,1012.63
2023-02-26T07:28:42.905Z,1012.66
2023-02-26T07:29:42.914Z,1012.70
2023-02-26T07:30:43.063Z,1012.74
2023-02-26T07:31:43.168Z,1012.76
2023-02-26T07:32:42.936Z,1012.76
2023-02-26T07:33:42.945Z,1012.77
2023-02-26T07:34:42.948Z,1012.75
2023-02-26T07:35:42.968Z,1012.82
2023-02-26T07:36:42.965Z,1012.78
2023-02-26T07:37:42.971Z,1012.86
2023-02-26T07:38:42.978Z,1012.87
2023-02-26T07:39:42.982Z,1012.84
2023-02-26T07:40:42.992Z,1012.90
2023-02-26T07:41:42.999Z,1012.90
2023-02-26T07:42:43.006Z,1012.89
2023-02-26T07:43:43.010Z,1012.94
2023-02-26T07:44:43.029Z,1012.96
2023-02-26T07:45:43.030Z,1012.88
2023-02-26T07:46:43.041Z,1012.90
2023-02-26T07:47:43.046Z,1012.99
2023-02-26T07:48:43.048Z,1012.96
2023-02-26T07:49:43.056Z,1013.03
2023-02-26T07:50:43.063Z,1013.01
2023-02-26T07:51:43.071Z,1013.01
2023-02-26T07:52:43.080Z,1013.06
2023-02-26T07:53:43.088Z,1012.99
2023-02-26T07:54:43.101Z,1012.99
2023-02-26T07:55:43.101Z,1013.06
2023-02-26T07:56:43.119Z,1013.05
2023-02-26T07:57:43.114Z,1013.07
2023-02-26T07:58:43.127Z,1013.02
2023-02-26T07:59:43.130Z,1013.08
2023-02-26T08:00:43.138Z,1013.06
2023-02-26T08:01:43.189Z,1013.07
2023-02-26T08:02:43.152Z,1013.03
2023-02-26T08:03:43.160Z,1013.10
2023-02-26T08:04:43.186Z,1013.16
2023-02-26T08:05:43.170Z,1013.14
2023-02-26T08:06:43.180Z,1013.18
2023-02-26T08:07:43.195Z,1013.15
2023-02-26T08:08:43.197Z,1013.17
2023-02-26T08:09:43.209Z,1013.24
2023-02-26T08:10:43.215Z,1013.21
2023-02-26T08:11:43.236Z,1013.23
2023-02-26T08:12:43.222Z,1013.33
2023-02-26T08:13:43.230Z,1013.28
2023-02-26T08:14:43.241Z,1013.25
2023-02-26T08:15:43.305Z,1013.26
2023-02-26T08:16:43.250Z,1013.30
2023-02-26T08:17:43.257Z,1013.36
2023-02-26T08:18:43.264Z,1013.32
2023-02-26T08:19:43.271Z,1013.34
2023-02-26T08:20:43.281Z,1013.25
2023-02-26T08:21:43.281Z,1013.35
2023-02-26T08:22:43.291Z,1013.40
2023-02-26T08:23:43.300Z,1013.36
2023-02-26T08:24:43.309Z,1013.38
2023-02-26T08:25:43.324Z,1013.38
2023-02-26T08:26:43.328Z,1013.40
2023-02-26T08:27:43.327Z,1013.40
2023-02-26T08:28:43.336Z,1013.47
2023-02-26T08:29:43.345Z,1013.51
2023-02-26T08:30:43.377Z,1013.53
2023-02-26T08:31:43.502Z,1013.48
2023-02-26T08:32:43.456Z,1013.49
2023-02-26T08:33:43.371Z,1013.49
2023-02-26T08:34:43.376Z,1013.54
2023-02-26T08:35:43.381Z,1013.52
2023-02-26T08:36:43.392Z,1013.59
2023-02-26T08:37:43.406Z,1013.67
2023-02-26T08:38:43.404Z,1013.60
2023-02-26T08:39:43.408Z,1013.65
2023-02-26T08:40:43.419Z,1013.68
2023-02-26T08:41:43.425Z,1013.72
2023-02-26T08:42:43.440Z,1013.70
2023-02-26T08:43:43.450Z,1013.73
2023-02-26T08:44:43.444Z,1013.76
2023-02-26T08:45:43.455Z,1013.78
2023-02-26T08:46:43.498Z,1013.77
2023-02-26T08:47:55.588Z,1013.79
2023-02-26T08:48:43.477Z,1013.75
2023-02-26T08:49:43.486Z,1013.68
2023-02-26T08:50:43.491Z,1013.84
2023-02-26T08:51:43.509Z,1013.83
2023-02-26T08:52:43.504Z,1013.87
2023-02-26T08:53:43.514Z,1013.80
2023-02-26T08:54:43.524Z,1013.84
2023-02-26T08:55:43.532Z,1013.86
2023-02-26T08:56:43.549Z,1013.85
2023-02-26T08:57:43.561Z,1013.85
2023-02-26T08:58:43.547Z,1013.81
2023-02-26T08:59:43.557Z,1013.88
2023-02-26T09:00:43.564Z,1013.85
2023-02-26T09:01:43.603Z,1013.90
2023-02-26T09:02:43.601Z,1013.95
2023-02-26T09:03:44.144Z,1013.89
2023-02-26T09:04:43.597Z,1013.94
2023-02-26T09:05:43.621Z,1013.90
2023-02-26T09:06:43.617Z,1013.98
2023-02-26T09:07:43.622Z,1013.99
2023-02-26T09:08:43.624Z,1014.01
2023-02-26T09:09:43.630Z,1013.99
2023-02-26T09:10:43.646Z,1013.98
2023-02-26T09:11:43.643Z,1014.01
2023-02-26T09:12:43.655Z,1014.00
2023-02-26T09:13:43.657Z,1013.98
2023-02-26T09:14:43.671Z,1014.05
2023-02-26T09:15:43.671Z,1014.03
2023-02-26T09:16:43.767Z,1014.04
2023-02-26T09:17:43.686Z,1014.00
2023-02-26T09:18:43.696Z,1014.00
2023-02-26T09:19:43.704Z,1014.06
2023-02-26T09:20:43.711Z,1014.06
2023-02-26T09:21:43.737Z,1014.07
2023-02-26T09:22:43.721Z,1014.09
2023-02-26T09:23:43.731Z,1013.99
2023-02-26T09:24:43.766Z,1014.16
2023-02-26T09:25:43.747Z,1014.14
2023-02-26T09:26:43.755Z,1014.10
2023-02-26T09:27:43.773Z,1014.13
2023-02-26T09:28:43.809Z,1014.19
2023-02-26T09:29:43.790Z,1014.18
2023-02-26T09:30:43.813Z,1014.18
2023-02-26T09:31:43.912Z,1014.26
2023-02-26T09:32:43.827Z,1014.25
2023-02-26T09:33:43.806Z,1014.26
2023-02-26T09:34:43.815Z,1014.38
2023-02-26T09:35:43.824Z,1014.37
2023-02-26T09:36:43.828Z,1014.34
2023-02-26T09:37:43.835Z,1014.39
2023-02-26T09:38:43.844Z,1014.38
2023-02-26T09:39:43.850Z,1014.31
2023-02-26T09:40:43.858Z,1014.38
2023-02-26T09:41:43.870Z,1014.38
2023-02-26T09:42:43.873Z,1014.39
2023-02-26T09:43:43.889Z,1014.33
2023-02-26T09:44:43.889Z,1014.40
2023-02-26T09:45:44.699Z,1014.44
2023-02-26T09:46:43.905Z,1014.44
2023-02-26T09:47:43.912Z,1014.45
2023-02-26T09:48:43.922Z,1014.50
2023-02-26T09:49:43.937Z,1014.49
2023-02-26T09:50:43.934Z,1014.44
2023-02-26T09:51:43.940Z,1014.54
2023-02-26T09:52:43.952Z,1014.53
2023-02-26T09:53:43.957Z,1014.53
2023-02-26T09:54:43.967Z,1014.56
2023-02-26T09:55:43.973Z,1014.62
2023-02-26T09:56:43.984Z,1014.66
2023-02-26T09:57:43.993Z,1014.61
2023-02-26T09:58:43.999Z,1014.68
2023-02-26T09:59:44.008Z,1014.64
2023-02-26T10:00:44.037Z,1014.68
2023-02-26T10:01:44.094Z,1014.78
2023-02-26T10:02:44.031Z,1014.81
2023-02-26T10:03:44.050Z,1014.84
2023-02-26T10:04:44.046Z,1014.78
2023-02-26T10:05:44.055Z,1014.83
2023-02-26T10:06:44.064Z,1014.73
2023-02-26T10:07:44.072Z,1014.81
2023-02-26T10:08:44.077Z,1014.79
2023-02-26T10:09:44.091Z,1014.83
2023-02-26T10:10:44.096Z,1014.85
2023-02-26T10:11:44.108Z,1014.85
2023-02-26T10:12:44.113Z,1014.89
2023-02-26T10:13:56.712Z,1014.89
2023-02-26T10:14:44.126Z,1014.88
2023-02-26T10:15:44.133Z,1014.90
2023-02-26T10:16:44.227Z,1014.96
2023-02-26T10:17:44.153Z,1014.91
2023-02-26T10:18:44.160Z,1014.92
2023-02-26T10:19:44.176Z,1014.94
2023-02-26T10:20:44.282Z,1014.96
2023-02-26T10:21:44.189Z,1014.99
2023-02-26T10:22:44.194Z,1015.01
2023-02-26T10:23:44.200Z,1015.05
2023-02-26T10:24:44.219Z,1015.04
2023-02-26T10:25:44.262Z,1014.97
2023-02-26T10:26:44.227Z,1014.99
2023-02-26T10:27:44.236Z,1014.95
2023-02-26T10:28:44.242Z,1015.02
2023-02-26T10:29:44.248Z,1015.05
2023-02-26T10:30:44.268Z,1015.09
2023-02-26T10:31:44.392Z,1015.14
2023-02-26T10:32:44.342Z,1015.15
2023-02-26T10:33:44.284Z,1015.11
2023-02-26T10:34:44.299Z,1015.14
2023-02-26T10:35:44.293Z,1015.19
2023-02-26T10:36:44.302Z,1015.13
2023-02-26T10:37:44.314Z,1015.12
2023-02-26T10:38:44.318Z,1015.24
2023-02-26T10:39:44.330Z,1015.23
2023-02-26T10:40:44.337Z,1015.18
2023-02-26T10:41:44.345Z,1015.16
2023-02-26T10:42:44.354Z,1015.22
2023-02-26T10:43:44.364Z,1015.19
2023-02-26T10:44:44.370Z,1015.24
2023-02-26T10:45:44.404Z,1015.23
2023-02-26T10:46:44.385Z,1015.34
2023-02-26T10:47:44.644Z,1015.31
2023-02-26T10:48:44.402Z,1015.26
2023-02-26T10:49:44.412Z,1015.32
2023-02-26T10:50:44.420Z,1015.26
2023-02-26T10:51:44.426Z,1015.35
2023-02-26T10:52:44.441Z,1015.37
2023-02-26T10:53:44.446Z,1015.32
2023-02-26T10:54:44.455Z,1015.33
2023-02-26T10:55:44.480Z,1015.33
2023-02-26T10:56:44.480Z,1015.40
2023-02-26T10:57:44.481Z,1015.39
2023-02-26T10:58:44.490Z,1015.34
2023-02-26T10:59:44.507Z,1015.42
2023-02-26T11:00:44.513Z,1015.41
2023-02-26T11:01:44.563Z,1015.43
2023-02-26T11:02:44.582Z,1015.46
2023-02-26T11:03:44.535Z,1015.43
2023-02-26T11:04:44.545Z,1015.39
2023-02-26T11:05:44.554Z,1015.41
2023-02-26T11:06:44.564Z,1015.43
2023-02-26T11:07:44.595Z,1015.39
2023-02-26T11:08:44.582Z,1015.40
2023-02-26T11:09:44.595Z,1015.39
2023-02-26T11:10:44.606Z,1015.42
2023-02-26T11:11:44.611Z,1015.45
2023-02-26T11:12:44.637Z,1015.37
2023-02-26T11:13:44.629Z,1015.36
2023-02-26T11:14:44.644Z,1015.39
2023-02-26T11:15:44.682Z,1015.38
2023-02-26T11:16:44.655Z,1015.39
2023-02-26T11:17:44.671Z,1015.53
2023-02-26T11:18:44.674Z,1015.36
2023-02-26T11:19:44.684Z,1015.36
2023-02-26T11:20:44.695Z,1015.34
2023-02-26T11:21:44.703Z,1015.39
2023-02-26T11:22:44.724Z,1015.37
2023-02-26T11:23:44.732Z,1015.44
2023-02-26T11:24:44.749Z,1015.43
2023-02-26T11:25:44.750Z,1015.50
2023-02-26T11:26:44.758Z,1015.49
2023-02-26T11:27:44.763Z,1015.52
2023-02-26T11:28:44.772Z,1015.55
2023-02-26T11:29:44.782Z,1015.57
2023-02-26T11:30:44.916Z,1015.60
2023-02-26T11:31:44.933Z,1015.63
2023-02-26T11:32:44.859Z,1015.74
2023-02-26T11:33:44.822Z,1015.72
2023-02-26T11:34:44.825Z,1015.69
2023-02-26T11:35:44.838Z,1015.68
2023-02-26T11:36:44.842Z,1015.77
2023-02-26T11:37:44.852Z,1015.74
2023-02-26T11:38:44.862Z,1015.71
2023-02-26T11:39:44.873Z,1015.67
2023-02-26T11:40:44.879Z,1015.77
2023-02-26T11:41:44.898Z,1015.58
2023-02-26T11:42:44.904Z,1015.63
2023-02-26T11:43:45.200Z,1015.67
2023-02-26T11:44:44.943Z,1015.65
2023-02-26T11:45:44.929Z,1015.65
2023-02-26T11:46:44.942Z,1015.66
2023-02-26T11:47:44.947Z,1015.62
2023-02-26T11:48:44.960Z,1015.75
2023-02-26T11:49:44.976Z,1015.74
2023-02-26T11:50:44.988Z,1015.69
2023-02-26T11:51:44.986Z,1015.66
2023-02-26T11:52:44.993Z,1015.64
2023-02-26T11:53:45.003Z,1015.67
2023-02-26T11:54:45.010Z,1015.69
2023-02-26T11:55:45.020Z,1015.69
2023-02-26T11:56:45.031Z,1015.79
2023-02-26T11:57:45.042Z,1015.68
2023-02-26T11:58:45.058Z,1015.74
2023-02-26T11:59:45.054Z,1015.80
2023-02-26T12:00:45.062Z,1015.75
2023-02-26T12:01:45.072Z,1015.73
2023-02-26T12:02:45.124Z,1015.84
2023-02-26T12:03:45.117Z,1015.84
2023-02-26T12:04:45.110Z,1015.84
2023-02-26T12:05:45.109Z,1015.90